Latest Weather Observations for Argyle

IDW60801

Issued at 11:02 am WST Wednesday 1 April 2015 (issued every 30 minutes, with the page automatically refreshed every 10 minutes)

About weather observations | Map of weather stations | Latest weather observations for WA | Other Formats
Station Details ID: 002064 Name: ARGYLE AERODROME Lat: -16.64 Lon: 128.45 Height: 164.0 m
Data from the previous 72 hours. | See also: Recent months at Argyle
Date/Time
WST
Temp
°C
App
Temp
°C
Dew
Point
Rel
Hum
%
Delta-T
°C
Wind Press
QNH
hPa
Press
MSL
hPa
Rain
since 9 am
mm
Dir
 
Spd
km/h
Gust
km/h
Spd
kts
Gust
kts
01/11:00am 37.2 35.5 14.8 26 14.1 ENE 17 28 9 15 1012.0 - 0.0
01/10:30am 37.1 36.9 15.8 28 13.6 E 11 24 6 13 1012.6 - 0.0
01/10:00am 35.6 36.0 17.2 33 11.9 ESE 11 17 6 9 1013.3 - 0.0
01/09:30am 36.1 37.2 18.1 34 11.8 E 9 17 5 9 1013.7 - 0.0
01/08:30am 33.8 36.3 19.9 44 9.3 ESE 6 11 3 6 1014.1 - 0.0
01/08:00am 32.8 35.4 20.4 48 8.3 ESE 7 11 4 6 1014.2 - 0.0
01/07:30am 31.2 34.3 21.1 55 6.8 SSE 6 9 3 5 1014.2 - 0.0
01/07:00am 30.3 33.3 21.2 58 6.1 SE 7 9 4 5 1014.0 - 0.0
01/06:30am 28.8 31.3 21.0 62 5.2 SSW 9 11 5 6 1013.7 - 0.0
01/06:00am 27.1 31.5 21.4 71 3.8 CALM 0 0 0 0 1013.3 1012.2 0.0
01/05:30am 26.5 29.2 21.3 73 3.5 E 9 11 5 6 1013.2 - 0.0
01/05:00am 26.9 30.1 21.2 71 3.8 E 6 9 3 5 1012.9 - 0.0
01/04:30am 27.0 29.7 21.3 71 3.8 SE 9 13 5 7 1012.6 - 0.0
01/04:00am 27.2 29.8 21.2 69 4.0 E 9 11 5 6 1012.4 - 0.0
01/03:30am 27.8 32.0 21.7 69 4.1 E 2 6 1 3 1012.0 - 0.0
01/03:00am 28.0 32.4 21.4 67 4.4 CALM 0 0 0 0 1012.0 1011.0 0.0
01/02:30am 28.9 32.1 21.3 63 5.1 SSW 6 7 3 4 1012.0 - 0.0
01/02:00am 28.1 31.1 21.2 66 4.6 ESE 7 7 4 4 1012.2 - 0.0
01/01:30am 28.6 31.9 21.5 65 4.8 S 6 9 3 5 1012.2 - 0.0
01/01:00am 29.5 32.8 21.5 62 5.4 SW 6 7 3 4 1012.5 - 0.0
01/12:30am 29.4 33.3 21.2 61 5.5 WSW 2 7 1 4 1012.8 - 0.0
01/12:00am 29.7 32.7 21.2 60 5.7 NW 7 7 4 4 1013.1 1012.0 0.0
 
Date/Time
WST
Temp
°C
App
Temp
°C
Dew
Point
Rel
Hum
%
Delta-T
°C
Wind Press
QNH
hPa
Press
MSL
hPa
Rain
since 9 am
mm
Dir
 
Spd
km/h
Gust
km/h
Spd
kts
Gust
kts
31/11:30pm 30.2 34.2 21.3 59 6.0 E 2 6 1 3 1013.4 - 0.0
31/11:00pm 30.6 32.2 20.0 53 7.0 NE 11 17 6 9 1013.7 - 0.0
31/10:30pm 30.5 33.1 20.4 54 6.7 NE 7 9 4 5 1013.7 - 0.0
31/10:00pm 30.7 33.5 20.9 56 6.6 ESE 7 9 4 5 1013.7 - 0.0
31/09:30pm 31.1 34.1 21.2 55 6.7 SE 7 13 4 7 1013.6 - 0.0
31/09:00pm 32.7 34.5 18.8 43 9.1 S 7 11 4 6 1013.3 1012.1 0.0
31/08:30pm 32.2 35.1 20.6 50 7.8 S 6 7 3 4 1013.2 - 0.0
31/08:00pm 32.6 35.7 19.6 46 8.6 SE 2 7 1 4 1013.1 - 0.0
31/07:30pm 32.7 34.4 19.4 45 8.8 SSW 9 15 5 8 1012.8 - 0.0
31/07:00pm 32.9 35.1 19.5 45 8.9 S 7 11 4 6 1012.5 - 0.0
31/06:30pm 33.5 36.3 19.7 44 9.2 SSE 4 9 2 5 1012.2 - 0.0
31/06:00pm 33.9 37.9 20.5 45 9.0 CALM 0 0 0 0 1011.8 1010.7 0.0
31/05:30pm 34.8 36.9 18.1 37 10.9 SSW 4 7 2 4 1011.4 - 0.0
31/05:00pm 35.1 36.8 18.5 37 10.9 SW 7 11 4 6 1011.2 - 0.0
31/04:30pm 35.5 36.8 18.5 36 11.2 S 9 13 5 7 1010.9 - 0.0
31/04:00pm 36.0 36.0 17.2 33 12.2 SSE 13 19 7 10 1010.9 - 0.0
31/03:30pm 37.5 37.6 16.4 28 13.6 E 11 17 6 9 1010.7 - 0.0
31/03:00pm 37.7 36.6 16.3 28 13.8 ENE 17 26 9 14 1010.6 1009.4 0.0
31/02:30pm 38.1 38.0 16.9 28 13.8 NE 13 30 7 16 1010.5 - 0.0
31/02:00pm 37.6 37.7 16.5 28 13.6 E 11 17 6 9 1010.8 - 0.0
31/01:30pm 36.4 37.1 17.1 32 12.5 E 9 30 5 16 1011.1 - 0.0
31/01:00pm 36.7 36.9 16.7 30 12.9 ENE 11 20 6 11 1011.6 - 0.0
31/12:30pm 36.9 36.6 17.4 31 12.7 NE 15 22 8 12 1012.1 - 0.0
31/12:00pm 36.3 36.5 16.8 31 12.6 S 11 22 6 12 1012.7 1011.5 0.0
31/11:30am 36.0 36.3 15.9 30 12.8 ENE 9 13 5 7 1013.3 - 0.0
31/11:00am 35.6 34.3 16.8 32 12.1 NNE 19 28 10 15 1014.0 - 0.0
31/10:30am 35.0 33.9 17.4 35 11.4 NNE 19 32 10 17 1014.5 - 0.0
31/10:00am 35.7 35.8 18.4 36 11.4 NNE 15 22 8 12 1015.0 - 0.0
31/09:30am 34.8 36.5 18.5 38 10.7 N 7 13 4 7 1015.3 - 0.0
31/09:00am 33.9 34.4 18.3 39 10.2 ENE 13 19 7 10 1015.5 1014.3 0.0
31/08:30am 34.1 36.0 18.9 40 10.0 ENE 7 15 4 8 1015.6 - 0.0
31/08:00am 32.8 34.8 19.1 44 9.0 ENE 7 11 4 6 1015.7 - 0.0
31/07:30am 32.0 33.7 18.1 43 9.0 SE 6 9 3 5 1015.6 - 0.0
31/07:00am 31.1 33.0 18.5 47 8.2 E 6 9 3 5 1015.2 - 0.0
31/06:30am 30.1 33.2 18.7 50 7.4 CALM 0 0 0 0 1014.8 - 0.0
31/06:00am 28.5 32.0 19.5 58 5.9 CALM 0 0 0 0 1014.4 1013.2 0.0
31/05:30am 27.9 31.4 19.6 60 5.4 CALM 0 0 0 0 1014.1 - 0.0
31/05:00am 27.7 31.1 19.4 60 5.4 CALM 0 0 0 0 1013.8 - 0.0
31/04:30am 27.8 30.2 19.7 61 5.3 E 6 7 3 4 1013.6 - 0.0
31/04:00am 27.7 30.0 19.9 62 5.1 E 7 7 4 4 1013.4 - 0.0
31/03:30am 28.1 30.2 19.4 59 5.7 ESE 7 7 4 4 1013.1 - 0.0
31/03:00am 28.4 30.8 19.7 59 5.7 SSE 6 7 3 4 1013.1 1011.9 0.0
31/02:30am 28.6 31.2 20.1 60 5.6 SSE 6 7 3 4 1012.9 - 0.0
31/02:00am 28.6 31.4 20.8 62 5.2 SE 7 9 4 5 1012.9 - 0.0
31/01:30am 28.9 31.8 21.0 62 5.3 SE 7 9 4 5 1013.0 - 0.0
31/01:00am 29.4 31.1 18.6 52 7.0 ESE 7 9 4 5 1013.1 - 0.0
31/12:30am 29.9 32.9 18.5 50 7.4 CALM 0 0 0 0 1013.4 - 0.0
31/12:00am 31.0 34.1 18.7 48 8.0 CALM 0 0 0 0 1013.6 1012.4 0.0
 
Date/Time
WST
Temp
°C
App
Temp
°C
Dew
Point
Rel
Hum
%
Delta-T
°C
Wind Press
QNH
hPa
Press
MSL
hPa
Rain
since 9 am
mm
Dir
 
Spd
km/h
Gust
km/h
Spd
kts
Gust
kts
30/11:30pm 31.4 34.3 18.1 45 8.6 CALM 0 0 0 0 1013.9 - 0.0
30/11:00pm 31.3 34.3 18.4 46 8.4 CALM 0 0 0 0 1014.2 - 0.0
30/10:30pm 32.1 35.0 18.1 43 9.1 CALM 0 0 0 0 1014.4 - 0.0
30/10:00pm 32.2 34.8 17.6 41 9.4 CALM 0 0 0 0 1014.5 - 0.0
30/09:30pm 32.5 35.2 17.8 41 9.5 CALM 0 0 0 0 1014.6 - 0.0
30/09:00pm 32.7 34.0 17.5 40 9.8 NNW 7 9 4 5 1014.6 1013.4 0.0
30/08:30pm 32.7 33.8 17.9 41 9.6 NE 9 11 5 6 1014.4 - 0.0
30/08:00pm 33.1 33.6 17.4 39 10.1 NE 11 15 6 8 1014.2 - 0.0
30/07:30pm 33.4 33.5 17.4 38 10.3 NE 13 19 7 10 1013.7 - 0.0
30/07:00pm 33.9 33.8 17.9 38 10.4 NE 15 20 8 11 1013.4 - 0.0
30/06:30pm 34.1 33.6 17.0 36 11.0 NE 15 22 8 12 1012.9 - 0.0
30/06:00pm 34.6 34.3 16.4 33 11.6 NE 13 20 7 11 1012.5 1011.3 0.0
30/05:30pm 35.3 34.5 16.2 32 12.2 NE 15 24 8 13 1011.9 - 0.0
30/05:00pm 36.2 35.7 16.0 30 12.9 NNE 13 20 7 11 1011.6 - 0.0
30/04:30pm 36.7 35.9 15.2 27 13.6 NNE 13 22 7 12 1011.4 - 0.0
30/04:00pm 37.1 36.0 15.3 27 13.8 NNE 15 24 8 13 1011.4 - 0.0
30/03:30pm 37.5 35.7 14.4 25 14.5 NNE 17 24 9 13 1011.3 - 0.0
30/03:00pm 37.8 35.5 14.1 24 14.8 NE 19 26 10 14 1011.3 1010.1 0.0
30/02:30pm 38.2 37.2 13.3 22 15.4 E 11 19 6 10 1011.3 - 0.0
30/02:00pm 37.5 36.4 13.1 23 15.0 NE 11 19 6 10 1011.4 - 0.0
30/01:30pm 38.3 36.1 12.2 21 15.9 NE 15 24 8 13 1011.7 - 0.0
30/01:00pm 38.2 36.5 12.6 21 15.7 NNE 13 20 7 11 1012.2 - 0.0
30/12:30pm 37.4 35.3 12.5 22 15.2 ENE 15 24 8 13 1012.6 - 0.0
30/12:00pm 37.3 34.4 11.0 20 15.7 E 17 24 9 13 1012.9 1011.7 0.0
30/11:30am 37.2 35.3 11.9 22 15.3 NNE 13 19 7 10 1013.3 - 0.0
30/11:00am 36.1 34.6 12.0 23 14.5 ENE 11 26 6 14 1013.8 - 0.0
30/10:30am 35.4 34.4 12.4 25 13.9 ENE 9 20 5 11 1014.4 - 0.0
30/10:00am 34.8 33.2 10.3 22 14.3 ENE 9 15 5 8 1014.9 - 0.0
30/09:30am 34.7 32.5 10.9 23 14.0 E 13 20 7 11 1015.3 - 0.0
30/09:00am 34.5 31.4 7.1 18 15.2 E 13 19 7 10 1015.5 1014.3 0.0
30/08:30am 33.0 29.1 5.4 18 14.8 ESE 15 20 8 11 1015.5 - 0.0
30/08:00am 32.2 28.7 5.4 18 14.3 SE 13 19 7 10 1015.5 - 0.0
30/07:30am 31.7 28.8 6.4 20 13.7 SSE 11 17 6 9 1015.5 - 0.0
30/07:00am 30.4 28.9 9.0 26 12.0 SE 7 9 4 5 1015.2 - 0.0
30/06:30am 28.5 28.9 11.4 34 9.9 CALM 0 6 0 3 1014.8 - 0.0
30/06:00am 26.3 26.2 10.8 37 8.8 W 2 7 1 4 1014.6 1013.4 0.0
30/05:30am 26.5 26.9 11.3 38 8.7 CALM 0 0 0 0 1014.3 - 0.0
30/05:00am 26.9 27.2 10.9 36 9.1 CALM 0 0 0 0 1013.8 - 0.0
30/04:30am 27.8 27.9 10.1 33 10.0 CALM 0 0 0 0 1013.5 - 0.0
30/04:00am 27.6 26.6 10.3 34 9.8 W 6 7 3 4 1013.3 - 0.0
30/03:30am 27.6 26.2 9.5 32 10.1 NNW 7 9 4 5 1013.0 - 0.0
30/03:00am 28.3 26.6 7.7 27 11.2 ESE 6 7 3 4 1012.8 1011.6 0.0
30/02:30am 27.8 26.1 9.8 32 10.1 SE 9 9 5 5 1012.7 - 0.0
30/02:00am 28.7 27.2 9.2 29 10.9 SSE 7 11 4 6 1012.7 - 0.0
30/01:30am 28.7 27.3 9.4 30 10.8 SSE 7 11 4 6 1012.8 - 0.0
30/01:00am 28.5 27.4 10.6 32 10.2 SSE 7 9 4 5 1013.0 - 0.0
30/12:30am 28.3 26.9 10.8 33 10.0 SE 9 11 5 6 1013.0 - 0.0
30/12:00am 28.0 28.3 14.5 43 8.2 SE 6 7 3 4 1013.2 1012.0 0.0
 
Date/Time
WST
Temp
°C
App
Temp
°C
Dew
Point
Rel
Hum
%
Delta-T
°C
Wind Press
QNH
hPa
Press
MSL
hPa
Rain
since 9 am
mm
Dir
 
Spd
km/h
Gust
km/h
Spd
kts
Gust
kts
29/11:30pm 28.3 28.7 15.3 45 8.0 ESE 7 9 4 5 1013.5 - 0.0
29/11:00pm 28.2 28.7 15.5 46 7.8 ESE 7 9 4 5 1013.9 - 0.0
29/10:30pm 28.9 29.3 15.4 44 8.3 ESE 7 11 4 6 1014.3 - 0.0
29/10:00pm 29.9 30.3 15.3 41 9.0 ESE 7 9 4 5 1014.4 - 0.0
29/09:30pm 30.8 31.5 15.5 39 9.5 SSE 6 7 3 4 1014.6 - 0.0
29/09:00pm 31.6 32.1 14.9 36 10.3 SSW 6 9 3 5 1014.7 1013.5 0.0
29/08:30pm 31.6 32.3 15.6 38 10.0 SSW 6 7 3 4 1014.5 - 0.0
29/08:00pm 32.1 32.1 14.3 34 10.9 S 7 7 4 4 1014.3 - 0.0
29/07:30pm 32.2 32.5 14.9 35 10.7 N 7 7 4 4 1013.9 - 0.0
29/07:00pm 33.2 33.0 13.5 30 12.0 N 7 11 4 6 1013.7 - 0.0
29/06:30pm 33.5 32.4 13.0 29 12.4 NNE 11 15 6 8 1013.3 - 0.0
29/06:00pm 34.1 32.8 12.5 27 13.0 NE 11 17 6 9 1013.0 1011.8 0.0
29/05:30pm 35.1 33.5 11.4 23 14.1 NNE 11 17 6 9 1012.5 - 0.0
29/05:00pm 36.4 34.0 10.2 20 15.4 NE 13 20 7 11 1012.2 - 0.0
29/04:30pm 37.4 34.9 9.8 18 16.2 ENE 13 19 7 10 1011.9 - 0.0
29/04:00pm 38.0 35.2 10.0 18 16.5 NNE 15 22 8 12 1011.6 - 0.0
29/03:30pm 38.3 36.1 9.5 17 16.9 ENE 11 19 6 10 1011.6 - 0.0
29/03:00pm 38.3 35.9 8.6 16 17.2 ENE 11 20 6 11 1011.3 1010.1 0.0
29/02:30pm 38.5 34.7 7.7 15 17.6 ENE 17 26 9 14 1011.3 - 0.0
29/02:00pm 37.9 35.7 9.3 17 16.7 ESE 11 22 6 12 1011.5 - 0.0
29/01:30pm 38.5 34.7 7.4 15 17.7 ENE 17 32 9 17 1011.7 - 0.0
29/01:00pm 37.8 33.4 7.2 15 17.3 ENE 20 30 11 16 1012.2 - 0.0
29/12:30pm 37.9 35.3 7.7 16 17.2 NNE 11 20 6 11 1012.4 - 0.0
29/12:00pm 37.8 33.5 7.2 15 17.3 NE 19 28 10 15 1012.8 1011.6 0.0
29/11:30am 37.0 34.9 9.6 19 16.0 NE 11 20 6 11 1013.2 - 0.0

Other Formats:

Comma delimited format used in spreadsheet applications
http://www.bom.gov.au/fwo/IDW60801/IDW60801.94217.axf

JavaScript Object Notation format (JSON) in row-major order
http://www.bom.gov.au/fwo/IDW60801/IDW60801.94217.json